createdAt,value
2023-06-12T00:00:19.375Z,64.05
2023-06-12T00:01:36.909Z,64.32
2023-06-12T00:02:38.460Z,64.37
2023-06-12T00:03:46.113Z,64.27
2023-06-12T00:04:47.979Z,64.34
2023-06-12T00:05:50.116Z,64.23
2023-06-12T00:06:51.771Z,64.29
2023-06-12T00:07:56.661Z,64.34
2023-06-12T00:08:58.788Z,64.49
2023-06-12T00:10:00.401Z,64.51
2023-06-12T00:11:07.692Z,64.62
2023-06-12T00:12:09.523Z,64.67
2023-06-12T00:13:12.422Z,64.56
2023-06-12T00:14:13.893Z,64.59
2023-06-12T00:15:15.482Z,64.62
2023-06-12T00:16:17.306Z,64.67
2023-06-12T00:17:18.867Z,64.64
2023-06-12T00:18:20.304Z,64.67
2023-06-12T00:19:22.484Z,64.65
2023-06-12T00:20:24.098Z,64.74
2023-06-12T00:21:25.738Z,64.79
2023-06-12T00:22:27.196Z,64.86
2023-06-12T00:23:29.333Z,64.92
2023-06-12T00:24:30.783Z,65.00
2023-06-12T00:25:33.580Z,65.07
2023-06-12T00:26:35.811Z,65.09
2023-06-12T00:27:37.247Z,65.17
2023-06-12T00:28:38.843Z,65.14
2023-06-12T00:29:40.402Z,65.11
2023-06-12T00:30:41.943Z,65.06
2023-06-12T00:31:43.529Z,65.04
2023-06-12T00:32:45.578Z,65.20
2023-06-12T00:33:48.468Z,65.25
2023-06-12T00:34:50.279Z,65.28
2023-06-12T00:35:52.189Z,65.32
2023-06-12T00:36:53.723Z,65.41
2023-06-12T00:37:55.624Z,65.44
2023-06-12T00:38:57.156Z,65.42
2023-06-12T00:39:58.716Z,65.39
2023-06-12T00:41:00.236Z,65.40
2023-06-12T00:42:01.679Z,65.41
2023-06-12T00:43:03.530Z,65.41
2023-06-12T00:44:04.933Z,65.52
2023-06-12T00:45:07.127Z,65.55
2023-06-12T00:46:09.526Z,65.65
2023-06-12T00:47:11.566Z,65.92
2023-06-12T00:48:13.674Z,65.81
2023-06-12T00:49:15.293Z,65.90
2023-06-12T00:50:18.557Z,65.95
2023-06-12T00:51:21.073Z,66.16
2023-06-12T00:52:26.497Z,65.97
2023-06-12T00:53:27.992Z,66.09
2023-06-12T00:54:30.409Z,66.12
2023-06-12T00:55:32.463Z,66.46
2023-06-12T00:56:33.923Z,66.54
2023-06-12T00:57:37.315Z,66.36
2023-06-12T00:58:40.056Z,66.50
2023-06-12T00:59:42.176Z,66.48
2023-06-12T01:00:43.910Z,66.78
2023-06-12T01:01:45.474Z,66.72
2023-06-12T01:02:54.037Z,66.69
2023-06-12T01:03:58.386Z,66.77
2023-06-12T01:05:00.247Z,66.68
2023-06-12T01:06:05.734Z,66.64
2023-06-12T01:07:14.466Z,66.70
2023-06-12T01:08:35.047Z,66.80
2023-06-12T01:10:04.043Z,66.83
2023-06-12T01:11:11.376Z,66.95
2023-06-12T01:12:13.616Z,66.72
2023-06-12T01:13:17.984Z,66.65
2023-06-12T01:14:21.289Z,66.70
2023-06-12T01:15:23.062Z,66.75
2023-06-12T01:16:24.516Z,66.93
2023-06-12T01:17:27.815Z,66.89
2023-06-12T01:18:30.253Z,66.97
2023-06-12T01:19:32.857Z,66.92
2023-06-12T01:20:35.460Z,67.00
2023-06-12T01:21:41.764Z,66.99
2023-06-12T01:23:01.360Z,67.07
2023-06-12T01:24:42.970Z,67.23
2023-06-12T01:26:04.032Z,67.28
2023-06-12T01:27:24.333Z,67.37
2023-06-12T01:28:41.485Z,67.59
2023-06-12T01:30:13.734Z,67.35
2023-06-12T01:32:55.794Z,67.49
2023-06-12T01:34:07.579Z,67.34
2023-06-12T01:35:17.124Z,67.46
2023-06-12T01:36:23.940Z,67.60
2023-06-12T01:37:50.100Z,67.51
2023-06-12T01:39:00.051Z,67.70
2023-06-12T01:40:06.257Z,67.56
2023-06-12T01:41:10.040Z,67.68
2023-06-12T01:42:12.500Z,67.63
2023-06-12T01:43:14.114Z,67.65
2023-06-12T01:44:17.459Z,67.65
2023-06-12T01:45:18.893Z,67.66
2023-06-12T01:46:20.495Z,67.65
2023-06-12T01:47:22.909Z,67.68
2023-06-12T01:48:25.004Z,67.74
2023-06-12T01:49:27.111Z,67.68
2023-06-12T01:50:28.692Z,67.71
2023-06-12T01:51:30.941Z,67.80
2023-06-12T01:52:33.351Z,67.85
2023-06-12T01:53:37.101Z,67.81
2023-06-12T01:54:39.389Z,67.83
2023-06-12T01:55:41.794Z,67.83
2023-06-12T01:56:43.741Z,67.78
2023-06-12T01:57:45.612Z,67.85
2023-06-12T01:58:50.457Z,67.86
2023-06-12T02:00:21.361Z,67.99
2023-06-12T02:01:24.339Z,67.77
2023-06-12T02:02:26.680Z,67.81
2023-06-12T02:03:29.558Z,67.89
2023-06-12T02:04:31.345Z,67.82
2023-06-12T02:05:37.527Z,67.77
2023-06-12T02:06:38.956Z,67.88
2023-06-12T02:07:40.602Z,67.85
2023-06-12T02:08:42.887Z,67.76
2023-06-12T02:09:47.577Z,67.80
2023-06-12T02:10:50.663Z,67.78
2023-06-12T02:11:52.237Z,67.85
2023-06-12T02:12:53.806Z,67.86
2023-06-12T02:13:55.508Z,67.81
2023-06-12T02:14:57.615Z,67.78
2023-06-12T02:15:59.245Z,67.80
2023-06-12T02:17:04.498Z,67.88
2023-06-12T02:18:07.302Z,67.90
2023-06-12T02:19:08.850Z,67.85
2023-06-12T02:20:11.203Z,67.91
2023-06-12T02:21:15.125Z,67.76
2023-06-12T02:22:17.035Z,67.85
2023-06-12T02:23:18.562Z,67.86
2023-06-12T02:24:21.379Z,67.88
2023-06-12T02:25:22.996Z,67.97
2023-06-12T02:26:25.160Z,67.88
2023-06-12T02:27:26.812Z,67.74
2023-06-12T02:28:28.399Z,67.79
2023-06-12T02:29:30.020Z,67.84
2023-06-12T02:30:31.810Z,67.87
2023-06-12T02:31:34.081Z,67.85
2023-06-12T02:32:35.893Z,67.79
2023-06-12T02:33:40.538Z,67.69
2023-06-12T02:34:42.053Z,67.67
2023-06-12T02:35:43.727Z,67.68
2023-06-12T02:36:47.285Z,67.70
2023-06-12T02:37:53.685Z,67.65
2023-06-12T02:38:56.139Z,67.54
2023-06-12T02:39:57.751Z,67.54
2023-06-12T02:41:00.555Z,67.63
2023-06-12T02:42:02.345Z,67.58
2023-06-12T02:43:05.268Z,67.51
2023-06-12T02:44:07.172Z,67.54
2023-06-12T02:45:09.323Z,67.57
2023-06-12T02:46:10.862Z,67.57
2023-06-12T02:47:12.423Z,67.57
2023-06-12T02:48:14.780Z,67.55
2023-06-12T02:49:16.921Z,67.55
2023-06-12T02:50:18.572Z,67.59
2023-06-12T02:51:28.228Z,67.43
2023-06-12T02:52:30.243Z,67.44
2023-06-12T02:53:32.103Z,67.50
2023-06-12T02:54:33.678Z,67.42
2023-06-12T02:55:40.325Z,67.48
2023-06-12T02:56:45.330Z,67.47
2023-06-12T02:57:47.067Z,67.44
2023-06-12T02:58:48.736Z,67.40
2023-06-12T02:59:50.562Z,67.40
2023-06-12T03:01:00.158Z,67.40
2023-06-12T03:02:01.995Z,67.33
2023-06-12T03:03:29.623Z,67.37
2023-06-12T03:04:33.393Z,67.19
2023-06-12T03:05:36.565Z,67.24
2023-06-12T03:06:38.773Z,67.14
2023-06-12T03:07:40.710Z,67.00
2023-06-12T03:08:45.178Z,67.08
2023-06-12T03:09:47.167Z,67.13
2023-06-12T03:10:49.261Z,67.19
2023-06-12T03:11:52.475Z,67.05
2023-06-12T03:12:54.059Z,67.08
2023-06-12T03:13:55.523Z,67.08
2023-06-12T03:14:58.520Z,67.11
2023-06-12T03:16:00.700Z,67.00
2023-06-12T03:17:02.793Z,66.87
2023-06-12T03:18:04.648Z,66.86
2023-06-12T03:19:06.782Z,66.82
2023-06-12T03:20:09.541Z,66.93
2023-06-12T03:21:11.769Z,66.85
2023-06-12T03:22:13.406Z,66.92
2023-06-12T03:23:16.019Z,67.02
2023-06-12T03:24:17.623Z,66.95
2023-06-12T03:25:19.545Z,66.96
2023-06-12T03:26:21.089Z,67.02
2023-06-12T03:27:23.154Z,67.00
2023-06-12T03:28:24.681Z,66.95
2023-06-12T03:29:26.200Z,66.80
2023-06-12T03:30:27.678Z,66.72
2023-06-12T03:31:29.599Z,66.62
2023-06-12T03:32:32.573Z,66.66
2023-06-12T03:33:36.468Z,66.53
2023-06-12T03:34:39.715Z,66.47
2023-06-12T03:35:41.510Z,66.34
2023-06-12T03:36:44.404Z,66.35
2023-06-12T03:37:47.619Z,66.41
2023-06-12T03:38:50.316Z,66.35
2023-06-12T03:39:52.287Z,66.15
2023-06-12T03:40:54.133Z,66.02
2023-06-12T03:41:57.220Z,65.89
2023-06-12T03:43:04.431Z,66.04
2023-06-12T03:44:06.137Z,65.99
2023-06-12T03:45:10.736Z,65.96
2023-06-12T03:46:12.554Z,65.97
2023-06-12T03:47:14.580Z,65.98
2023-06-12T03:48:16.924Z,65.73
2023-06-12T03:49:18.808Z,65.66
2023-06-12T03:50:22.642Z,65.50
2023-06-12T03:51:24.447Z,65.38
2023-06-12T03:52:28.473Z,65.44
2023-06-12T03:53:30.250Z,65.42
2023-06-12T03:54:31.905Z,65.42
2023-06-12T03:55:34.757Z,65.46
2023-06-12T03:56:36.402Z,65.37
2023-06-12T03:57:38.121Z,65.50
2023-06-12T03:58:39.705Z,65.28
2023-06-12T03:59:41.157Z,65.14
2023-06-12T04:00:48.040Z,64.95
2023-06-12T04:01:49.986Z,65.11
2023-06-12T04:02:54.108Z,65.02
2023-06-12T04:03:56.882Z,64.86
2023-06-12T04:04:58.376Z,64.78
2023-06-12T04:05:59.840Z,64.67
2023-06-12T04:07:01.387Z,64.32
2023-06-12T04:08:03.133Z,64.35
2023-06-12T04:09:05.840Z,64.15
2023-06-12T04:10:11.347Z,64.05
2023-06-12T04:11:15.434Z,64.07
2023-06-12T04:12:17.027Z,63.93
2023-06-12T04:13:18.529Z,63.82
2023-06-12T04:14:20.674Z,63.55
2023-06-12T04:15:22.966Z,63.39
2023-06-12T04:16:24.947Z,63.24
2023-06-12T04:17:26.507Z,63.19
2023-06-12T04:18:27.936Z,62.99
2023-06-12T04:19:29.663Z,62.79
2023-06-12T04:20:32.626Z,62.75
2023-06-12T04:21:34.271Z,62.67
2023-06-12T04:22:36.338Z,62.48
2023-06-12T04:23:41.568Z,62.49
2023-06-12T04:24:43.779Z,62.29
2023-06-12T04:25:45.645Z,62.06
2023-06-12T04:26:49.051Z,61.85
2023-06-12T04:27:50.637Z,61.59
2023-06-12T04:28:53.583Z,61.67
2023-06-12T04:29:57.762Z,61.54
2023-06-12T04:31:00.494Z,61.19
2023-06-12T04:32:02.264Z,60.83
2023-06-12T04:33:04.007Z,61.01
2023-06-12T04:34:06.658Z,60.65
2023-06-12T04:35:08.867Z,60.29
2023-06-12T04:36:13.957Z,60.06
2023-06-12T04:37:18.837Z,59.67
2023-06-12T04:38:20.765Z,59.47
2023-06-12T04:39:23.986Z,59.21
2023-06-12T04:40:27.962Z,59.07
2023-06-12T04:41:33.389Z,58.79
2023-06-12T04:42:36.559Z,58.84
2023-06-12T04:43:39.014Z,59.44
2023-06-12T04:44:40.530Z,59.58
2023-06-12T04:45:44.757Z,59.50
2023-06-12T04:46:47.318Z,59.47
2023-06-12T04:47:50.489Z,59.63
2023-06-12T04:48:52.368Z,59.87
2023-06-12T04:49:58.303Z,59.65
2023-06-12T04:51:00.390Z,59.54
2023-06-12T04:52:03.518Z,59.57
2023-06-12T04:53:06.784Z,59.49
2023-06-12T04:54:10.078Z,59.65
2023-06-12T04:55:11.650Z,59.61
2023-06-12T04:56:13.435Z,59.66
2023-06-12T04:57:16.662Z,60.18
2023-06-12T04:58:18.432Z,59.41
2023-06-12T04:59:19.898Z,59.72
2023-06-12T05:00:21.525Z,59.63
2023-06-12T05:01:23.621Z,59.64
2023-06-12T05:02:25.367Z,59.41
2023-06-12T05:03:29.193Z,59.27
2023-06-12T05:04:31.224Z,58.80
2023-06-12T05:05:33.663Z,58.83
2023-06-12T05:06:38.171Z,58.98
2023-06-12T05:07:41.891Z,59.14
2023-06-12T05:08:43.603Z,58.62
2023-06-12T05:09:45.246Z,58.44
2023-06-12T05:10:46.758Z,58.46
2023-06-12T05:11:48.285Z,57.85
2023-06-12T05:12:50.415Z,57.43
2023-06-12T05:13:51.873Z,57.43
2023-06-12T05:14:53.668Z,57.03
2023-06-12T05:15:55.606Z,56.88
2023-06-12T05:16:59.298Z,56.91
2023-06-12T05:18:01.781Z,56.48
2023-06-12T05:19:04.039Z,56.34
2023-06-12T05:20:09.467Z,56.66
2023-06-12T05:21:13.913Z,56.70
2023-06-12T05:22:16.565Z,56.69
2023-06-12T05:23:18.340Z,56.46
2023-06-12T05:24:20.894Z,56.30
2023-06-12T05:25:22.902Z,56.04
2023-06-12T05:26:25.734Z,55.81
2023-06-12T05:27:27.249Z,55.91
2023-06-12T05:28:28.653Z,55.69
2023-06-12T05:29:30.132Z,54.82
2023-06-12T05:30:31.727Z,55.19
2023-06-12T05:31:34.539Z,55.14
2023-06-12T05:32:36.794Z,55.03
2023-06-12T05:33:40.043Z,55.09
2023-06-12T05:34:43.420Z,55.10
2023-06-12T05:35:45.228Z,54.91
2023-06-12T05:36:46.949Z,54.75
2023-06-12T05:37:48.628Z,54.74
2023-06-12T05:38:50.302Z,54.09
2023-06-12T05:39:53.436Z,53.37
2023-06-12T05:40:55.097Z,54.01
2023-06-12T05:41:57.362Z,53.60
2023-06-12T05:42:59.862Z,53.10
2023-06-12T05:44:04.080Z,53.15
2023-06-12T05:45:06.508Z,53.25
2023-06-12T05:46:08.044Z,53.06
2023-06-12T05:47:11.235Z,53.16
2023-06-12T05:48:13.141Z,52.39
2023-06-12T05:49:14.671Z,52.94
2023-06-12T05:50:16.565Z,53.39
2023-06-12T05:51:18.189Z,53.51
2023-06-12T05:52:20.133Z,53.50
2023-06-12T05:53:22.108Z,53.17
2023-06-12T05:54:23.763Z,52.78
2023-06-12T05:55:30.372Z,53.12
2023-06-12T05:56:33.075Z,52.90
2023-06-12T05:57:35.100Z,52.20
2023-06-12T05:58:36.822Z,52.21
2023-06-12T05:59:38.301Z,51.90
2023-06-12T06:00:44.045Z,50.57
2023-06-12T06:01:51.445Z,50.67
2023-06-12T06:02:53.868Z,50.45
2023-06-12T06:04:04.614Z,50.70
2023-06-12T06:05:10.172Z,51.10
2023-06-12T06:06:13.528Z,51.02
2023-06-12T06:07:18.592Z,51.34
2023-06-12T06:08:22.302Z,51.34
2023-06-12T06:09:24.140Z,51.11
2023-06-12T06:10:27.071Z,51.17
2023-06-12T06:11:28.869Z,51.29
2023-06-12T06:12:30.687Z,51.16
2023-06-12T06:13:32.884Z,50.53
2023-06-12T06:14:34.859Z,50.79
2023-06-12T06:15:37.015Z,50.57
2023-06-12T06:16:53.289Z,50.28
2023-06-12T06:17:57.252Z,50.01
2023-06-12T06:18:58.850Z,49.56
2023-06-12T06:20:00.433Z,49.71
2023-06-12T06:21:01.926Z,49.92
2023-06-12T06:22:05.477Z,50.14
2023-06-12T06:23:07.305Z,50.01
2023-06-12T06:24:10.463Z,49.85
2023-06-12T06:25:14.075Z,49.78
2023-06-12T06:26:16.213Z,49.92
2023-06-12T06:27:18.562Z,49.25
2023-06-12T06:28:20.790Z,49.60
2023-06-12T06:29:22.686Z,49.55
2023-06-12T06:30:25.437Z,48.65
2023-06-12T06:31:28.485Z,48.85
2023-06-12T06:32:30.524Z,49.20
2023-06-12T06:33:32.818Z,49.28
2023-06-12T06:34:34.401Z,48.93
2023-06-12T06:35:35.825Z,48.64
2023-06-12T06:36:37.774Z,48.22
2023-06-12T06:37:39.350Z,47.50
2023-06-12T06:38:40.983Z,47.38
2023-06-12T06:39:42.575Z,47.37
2023-06-12T06:40:44.403Z,47.55
2023-06-12T06:41:45.999Z,47.89
2023-06-12T06:42:47.991Z,47.28
2023-06-12T06:43:55.369Z,47.52
2023-06-12T06:44:59.220Z,48.23
2023-06-12T06:46:00.955Z,48.22
2023-06-12T06:47:04.263Z,47.15
2023-06-12T06:48:07.919Z,46.90
2023-06-12T06:49:09.587Z,47.29
2023-06-12T06:50:11.719Z,47.47
2023-06-12T06:51:13.852Z,47.57
2023-06-12T06:52:17.680Z,47.91
2023-06-12T06:53:19.363Z,48.10
2023-06-12T06:54:20.983Z,48.69
2023-06-12T06:55:22.784Z,49.05
2023-06-12T06:56:24.507Z,48.92
2023-06-12T06:57:26.465Z,49.03
2023-06-12T06:58:27.964Z,49.25
2023-06-12T06:59:29.587Z,49.32
2023-06-12T07:00:31.103Z,49.11
2023-06-12T07:01:33.902Z,48.56
2023-06-12T07:02:35.627Z,48.83
2023-06-12T07:03:37.640Z,49.05
2023-06-12T07:04:40.606Z,49.22
2023-06-12T07:05:42.331Z,49.24
2023-06-12T07:06:44.585Z,49.26
2023-06-12T07:08:00.365Z,49.17
2023-06-12T07:09:05.106Z,48.64
2023-06-12T07:10:08.075Z,48.27
2023-06-12T07:11:10.304Z,47.64
2023-06-12T07:12:12.534Z,47.95
2023-06-12T07:13:14.459Z,47.81
2023-06-12T07:14:21.641Z,47.63
2023-06-12T07:15:27.348Z,47.55
2023-06-12T07:16:30.471Z,47.25
2023-06-12T07:17:33.690Z,47.01
2023-06-12T07:18:35.308Z,46.83
2023-06-12T07:19:37.531Z,46.50
2023-06-12T07:20:39.205Z,45.96
2023-06-12T07:21:40.888Z,45.48
2023-06-12T07:22:42.420Z,45.55
2023-06-12T07:23:45.439Z,45.89
2023-06-12T07:24:47.810Z,46.05
2023-06-12T07:25:50.672Z,45.84
2023-06-12T07:26:53.102Z,45.70
2023-06-12T07:27:55.396Z,45.46
2023-06-12T07:29:00.577Z,45.65
2023-06-12T07:30:03.281Z,45.88
2023-06-12T07:31:05.152Z,46.03
2023-06-12T07:32:06.987Z,46.35
2023-06-12T07:33:10.259Z,46.68
2023-06-12T07:34:12.210Z,46.85
2023-06-12T07:35:15.316Z,46.47
2023-06-12T07:36:17.115Z,46.27
2023-06-12T07:37:21.379Z,45.93
2023-06-12T07:38:23.598Z,45.59
2023-06-12T07:39:25.784Z,45.39
2023-06-12T07:40:27.673Z,45.49
2023-06-12T07:41:29.337Z,45.33
2023-06-12T07:42:33.540Z,45.28
2023-06-12T07:43:35.201Z,45.46
2023-06-12T07:44:38.134Z,45.09
2023-06-12T07:45:40.112Z,44.77
2023-06-12T07:46:43.034Z,44.74
2023-06-12T07:47:46.233Z,44.53
2023-06-12T07:48:48.093Z,44.41
2023-06-12T07:49:49.764Z,44.13
2023-06-12T07:50:51.254Z,44.10
2023-06-12T07:51:54.159Z,44.11
2023-06-12T07:52:56.464Z,44.24
2023-06-12T07:53:58.171Z,43.99
2023-06-12T07:55:00.756Z,43.83
2023-06-12T07:56:02.729Z,43.53
2023-06-12T07:57:06.759Z,43.07
2023-06-12T07:58:08.658Z,43.14
2023-06-12T07:59:11.652Z,43.02
2023-06-12T08:00:17.226Z,42.83
2023-06-12T08:01:22.950Z,41.86
2023-06-12T08:02:29.421Z,42.09
2023-06-12T08:03:32.322Z,41.89
2023-06-12T08:04:35.941Z,41.18
2023-06-12T08:05:38.253Z,41.10
2023-06-12T08:06:45.443Z,40.38
2023-06-12T08:07:46.986Z,40.42
2023-06-12T08:08:48.575Z,40.57
2023-06-12T08:09:52.018Z,40.73
2023-06-12T08:10:54.327Z,40.68
2023-06-12T08:11:55.990Z,40.53
2023-06-12T08:12:57.468Z,39.90
2023-06-12T08:13:59.131Z,39.76
2023-06-12T08:15:03.176Z,39.42
2023-06-12T08:16:05.208Z,39.66
2023-06-12T08:17:07.605Z,39.07
2023-06-12T08:18:11.523Z,38.09
2023-06-12T08:19:13.410Z,37.55
2023-06-12T08:20:15.907Z,37.15
2023-06-12T08:21:19.106Z,37.77
2023-06-12T08:22:20.738Z,38.12
2023-06-12T08:23:22.690Z,39.07
2023-06-12T08:24:25.798Z,39.82
2023-06-12T08:25:27.577Z,40.99
2023-06-12T08:26:30.798Z,42.63
2023-06-12T08:27:32.503Z,42.06
2023-06-12T08:28:35.870Z,42.28
2023-06-12T08:29:40.093Z,43.57
2023-06-12T08:30:42.039Z,44.45
2023-06-12T08:31:43.710Z,45.63
2023-06-12T08:32:46.809Z,46.15
2023-06-12T08:33:49.972Z,46.54
2023-06-12T08:34:51.623Z,46.77
2023-06-12T08:35:53.409Z,46.99
2023-06-12T08:36:55.156Z,46.84
2023-06-12T08:37:56.998Z,46.92
2023-06-12T08:39:00.908Z,47.20
2023-06-12T08:40:02.861Z,47.10
2023-06-12T08:41:05.748Z,46.53
2023-06-12T08:42:15.336Z,46.29
2023-06-12T08:43:17.078Z,46.45
2023-06-12T08:44:22.259Z,46.33
2023-06-12T08:45:27.010Z,46.52
2023-06-12T08:46:31.139Z,46.55
2023-06-12T08:47:35.615Z,46.62
2023-06-12T08:48:37.269Z,45.98
2023-06-12T08:49:38.807Z,45.91
2023-06-12T08:50:43.144Z,46.07
2023-06-12T08:51:47.371Z,45.83
2023-06-12T08:52:50.425Z,44.97
2023-06-12T08:53:52.609Z,45.00
2023-06-12T08:54:55.377Z,45.13
2023-06-12T08:55:57.857Z,45.08
2023-06-12T08:56:59.989Z,44.85
2023-06-12T08:58:02.464Z,44.70
2023-06-12T08:59:04.165Z,44.74
2023-06-12T09:00:13.086Z,44.75
2023-06-12T09:01:15.279Z,44.21
2023-06-12T09:02:19.028Z,44.14
2023-06-12T09:03:21.315Z,44.51
2023-06-12T09:04:41.996Z,44.96
2023-06-12T09:05:44.443Z,46.07
2023-06-12T09:06:48.236Z,46.23
2023-06-12T09:07:50.644Z,45.00
2023-06-12T09:08:52.602Z,45.70
2023-06-12T09:09:57.574Z,46.18
2023-06-12T09:11:03.711Z,46.11
2023-06-12T09:12:08.602Z,46.31
2023-06-12T09:13:11.034Z,46.26
2023-06-12T09:14:12.730Z,46.66
2023-06-12T09:15:19.482Z,47.11
2023-06-12T09:16:21.097Z,47.43
2023-06-12T09:17:28.991Z,47.72
2023-06-12T09:18:31.027Z,47.44
2023-06-12T09:19:43.574Z,47.13
2023-06-12T09:20:45.967Z,46.89
2023-06-12T09:21:47.729Z,46.76
2023-06-12T09:22:52.364Z,46.96
2023-06-12T09:23:56.023Z,46.44
2023-06-12T09:24:57.727Z,46.06
2023-06-12T09:26:14.826Z,46.70
2023-06-12T09:27:22.042Z,47.24
2023-06-12T09:28:26.388Z,47.25
2023-06-12T09:29:32.415Z,46.27
2023-06-12T09:30:38.953Z,46.33
2023-06-12T09:31:41.100Z,46.95
2023-06-12T09:32:43.637Z,47.26
2023-06-12T09:33:45.444Z,46.83
2023-06-12T09:34:48.873Z,46.66
2023-06-12T09:35:51.735Z,46.21
2023-06-12T09:36:54.460Z,46.12
2023-06-12T09:37:59.308Z,46.06
2023-06-12T09:39:00.870Z,45.96
2023-06-12T09:40:13.993Z,45.94
2023-06-12T09:41:21.258Z,46.16
2023-06-12T09:42:22.860Z,46.09
2023-06-12T09:43:28.377Z,46.67
2023-06-12T09:44:31.230Z,47.26
2023-06-12T09:45:32.778Z,47.22
2023-06-12T09:46:34.609Z,47.06
2023-06-12T09:47:43.521Z,47.25
2023-06-12T09:48:45.553Z,47.28
2023-06-12T09:49:47.036Z,47.71
2023-06-12T09:50:48.597Z,47.96
2023-06-12T09:51:51.573Z,48.00
2023-06-12T09:52:59.105Z,47.97
2023-06-12T09:54:01.631Z,48.35
2023-06-12T09:55:06.274Z,48.53
2023-06-12T09:56:09.414Z,48.50
2023-06-12T09:57:13.017Z,49.14
2023-06-12T09:58:15.291Z,49.32
2023-06-12T09:59:18.703Z,49.56
2023-06-12T10:00:21.360Z,49.34
2023-06-12T10:01:26.464Z,49.41
2023-06-12T10:02:28.205Z,49.46
2023-06-12T10:03:31.010Z,49.09
2023-06-12T10:04:41.000Z,48.41
2023-06-12T10:05:47.868Z,48.19
2023-06-12T10:06:50.863Z,47.98
2023-06-12T10:07:54.762Z,47.75
2023-06-12T10:08:57.124Z,47.66
2023-06-12T10:10:02.057Z,47.49
2023-06-12T10:11:04.525Z,47.65
2023-06-12T10:12:07.378Z,47.90
2023-06-12T10:13:09.790Z,48.17
2023-06-12T10:14:12.943Z,47.97
2023-06-12T10:15:16.041Z,48.59
2023-06-12T10:16:18.801Z,48.93
2023-06-12T10:17:22.593Z,48.59
2023-06-12T10:18:25.678Z,48.71
2023-06-12T10:19:27.529Z,48.80
2023-06-12T10:20:30.661Z,48.64
2023-06-12T10:21:32.436Z,48.77
2023-06-12T10:22:33.999Z,48.84
2023-06-12T10:23:37.273Z,48.57
2023-06-12T10:24:40.133Z,48.83
2023-06-12T10:25:42.007Z,49.11
2023-06-12T10:26:44.317Z,49.34
2023-06-12T10:27:46.632Z,49.42
2023-06-12T10:28:48.280Z,49.38
2023-06-12T10:30:00.850Z,49.69
2023-06-12T10:31:29.742Z,50.11
2023-06-12T10:32:32.908Z,49.38
2023-06-12T10:33:37.418Z,48.76
2023-06-12T10:34:45.482Z,47.82
2023-06-12T10:35:48.889Z,47.00
2023-06-12T10:36:50.630Z,46.65
2023-06-12T10:37:52.380Z,46.56
2023-06-12T10:39:07.375Z,46.53
2023-06-12T10:40:10.895Z,46.46
2023-06-12T10:41:12.727Z,46.13
2023-06-12T10:42:14.254Z,45.99
2023-06-12T10:43:21.322Z,45.74
2023-06-12T10:44:39.564Z,45.45
2023-06-12T10:45:56.029Z,44.68
2023-06-12T10:47:01.773Z,44.27
2023-06-12T10:48:06.106Z,44.02
2023-06-12T10:49:08.181Z,43.80
2023-06-12T10:50:09.845Z,43.69
2023-06-12T10:51:11.968Z,43.50
2023-06-12T10:52:20.681Z,43.42
2023-06-12T10:53:29.648Z,43.06
2023-06-12T10:54:31.080Z,42.71
2023-06-12T10:55:39.165Z,42.61
2023-06-12T10:56:58.877Z,42.61
2023-06-12T10:58:06.004Z,42.53
2023-06-12T10:59:14.602Z,42.41
2023-06-12T11:00:18.545Z,42.53
2023-06-12T11:01:20.805Z,41.54
2023-06-12T11:02:22.493Z,40.86
2023-06-12T11:03:29.718Z,40.61
2023-06-12T11:04:38.443Z,40.43
2023-06-12T11:05:52.296Z,40.23
2023-06-12T11:06:54.666Z,40.01
2023-06-12T11:08:04.890Z,40.52
2023-06-12T11:09:12.277Z,39.72
2023-06-12T11:10:14.466Z,39.20
2023-06-12T11:11:17.148Z,38.87
2023-06-12T11:12:18.714Z,38.71
2023-06-12T11:13:27.239Z,38.58
2023-06-12T11:14:32.356Z,38.80
2023-06-12T11:15:45.169Z,38.41
2023-06-12T11:16:46.653Z,37.70
2023-06-12T11:17:49.162Z,36.94
2023-06-12T11:19:09.074Z,36.81
2023-06-12T11:20:11.450Z,35.93
2023-06-12T11:21:13.747Z,35.75
2023-06-12T11:22:15.238Z,34.78
2023-06-12T11:23:16.990Z,34.78
2023-06-12T11:24:18.722Z,33.92
2023-06-12T11:25:20.369Z,34.02
2023-06-12T11:26:22.003Z,33.73
2023-06-12T11:27:23.998Z,33.38
2023-06-12T11:28:26.994Z,32.66
2023-06-12T11:30:43.452Z,32.58
2023-06-12T11:32:01.735Z,32.91
2023-06-12T11:33:17.811Z,32.00
2023-06-12T11:34:19.429Z,31.92
2023-06-12T11:35:20.958Z,31.29
2023-06-12T11:36:22.540Z,30.97
2023-06-12T11:37:26.634Z,30.61
2023-06-12T11:40:37.284Z,30.75
2023-06-12T11:41:38.779Z,30.48
2023-06-12T11:42:41.857Z,30.87
2023-06-12T11:43:44.113Z,31.01
2023-06-12T11:44:50.361Z,31.26
2023-06-12T11:45:53.056Z,31.18
2023-06-12T11:49:25.685Z,30.17
2023-06-12T11:50:27.919Z,30.53
2023-06-12T11:51:30.816Z,30.08
2023-06-12T11:52:34.520Z,30.14
2023-06-12T11:53:36.196Z,29.67
2023-06-12T11:57:17.120Z,29.56
2023-06-12T11:58:21.634Z,29.75
2023-06-12T11:59:34.681Z,28.99
2023-06-12T12:00:37.701Z,28.76
2023-06-12T12:01:41.663Z,28.43
2023-06-12T12:02:46.872Z,28.20
2023-06-12T12:03:49.166Z,28.22
2023-06-12T12:04:51.108Z,28.38
2023-06-12T12:05:52.740Z,28.49
2023-06-12T12:06:55.465Z,27.83
2023-06-12T12:08:00.318Z,28.23
2023-06-12T12:09:02.979Z,26.72
2023-06-12T12:10:09.743Z,26.90
2023-06-12T12:11:21.255Z,26.96
2023-06-12T12:12:23.300Z,26.79
2023-06-12T12:13:24.798Z,26.58
2023-06-12T12:14:27.453Z,26.05
2023-06-12T12:15:31.585Z,25.93
2023-06-12T12:16:40.630Z,24.92
2023-06-12T12:17:43.663Z,25.67
2023-06-12T12:18:45.163Z,25.62
2023-06-12T12:19:48.059Z,24.91
2023-06-12T12:20:50.344Z,25.43
2023-06-12T12:21:52.577Z,25.19
2023-06-12T12:22:59.249Z,25.46
2023-06-12T12:24:00.983Z,25.69
2023-06-12T12:25:03.749Z,25.77
2023-06-12T12:26:08.803Z,26.20
2023-06-12T12:27:13.517Z,26.30
2023-06-12T12:28:15.487Z,26.24
2023-06-12T12:29:23.104Z,25.85
2023-06-12T12:30:24.841Z,25.68
2023-06-12T12:31:26.481Z,25.57
2023-06-12T12:32:27.962Z,25.68
2023-06-12T12:33:29.708Z,25.65
2023-06-12T12:34:31.172Z,25.53
2023-06-12T12:35:32.749Z,25.76
2023-06-12T12:36:34.241Z,26.32
2023-06-12T12:37:35.890Z,26.75
2023-06-12T12:38:37.373Z,26.57
2023-06-12T12:39:38.847Z,26.53
2023-06-12T12:40:40.502Z,26.14
2023-06-12T12:41:41.999Z,26.04
2023-06-12T12:42:48.303Z,25.68
2023-06-12T12:43:49.970Z,25.32
2023-06-12T12:44:51.931Z,25.05
2023-06-12T12:45:53.594Z,24.39
2023-06-12T12:46:55.144Z,24.70
2023-06-12T12:47:56.964Z,24.33
2023-06-12T12:48:58.569Z,23.90
2023-06-12T12:50:05.860Z,24.11
2023-06-12T12:51:11.089Z,24.32
2023-06-12T12:52:28.766Z,23.95
2023-06-12T12:53:35.239Z,23.95
2023-06-12T12:54:36.862Z,23.07
2023-06-12T12:55:38.338Z,22.94
2023-06-12T12:56:40.117Z,22.88
2023-06-12T12:57:44.318Z,22.98
2023-06-12T12:58:45.842Z,22.87
2023-06-12T12:59:48.000Z,22.79
2023-06-12T13:00:51.353Z,22.82
2023-06-12T13:01:53.184Z,23.08
2023-06-12T13:02:54.973Z,22.43
2023-06-12T13:03:56.747Z,22.58
2023-06-12T13:04:58.607Z,22.89
2023-06-12T13:06:00.624Z,22.60
2023-06-12T13:07:02.357Z,22.63
2023-06-12T13:08:04.110Z,22.91
2023-06-12T13:09:05.632Z,22.58
2023-06-12T13:10:09.285Z,22.67
2023-06-12T13:11:10.773Z,23.17
2023-06-12T13:12:12.445Z,23.12
2023-06-12T13:13:15.734Z,22.66
2023-06-12T13:14:18.406Z,22.29
2023-06-12T13:15:20.091Z,22.46
2023-06-12T13:16:21.584Z,22.19
2023-06-12T13:17:23.190Z,22.33
2023-06-12T13:18:24.698Z,22.68
2023-06-12T13:19:28.550Z,22.80
2023-06-12T13:20:30.057Z,22.65
2023-06-12T13:21:31.624Z,22.04
2023-06-12T13:22:33.675Z,22.19
2023-06-12T13:23:35.541Z,21.59
2023-06-12T13:24:37.548Z,22.13
2023-06-12T13:25:39.201Z,22.23
2023-06-12T13:26:40.785Z,22.43
2023-06-12T13:27:42.260Z,22.35
2023-06-12T13:28:43.730Z,22.38
2023-06-12T13:29:45.323Z,22.06
2023-06-12T13:30:46.889Z,22.03
2023-06-12T13:31:49.842Z,22.33
2023-06-12T13:32:51.505Z,22.54
2023-06-12T13:33:52.989Z,22.79
2023-06-12T13:34:55.062Z,22.70
2023-06-12T13:35:56.717Z,22.74
2023-06-12T13:36:58.297Z,23.33
2023-06-12T13:38:00.063Z,23.79
2023-06-12T13:39:01.561Z,24.07
2023-06-12T13:40:04.991Z,24.15
2023-06-12T13:41:06.480Z,23.73
2023-06-12T13:42:08.120Z,23.85
2023-06-12T13:43:09.857Z,23.64
2023-06-12T13:44:11.381Z,23.54
2023-06-12T13:45:13.363Z,23.19
2023-06-12T13:46:15.049Z,23.25
2023-06-12T13:47:16.605Z,22.59
2023-06-12T13:48:18.134Z,22.94